Eger, Hungary
Current Conditions -  °F | °C
As of 3:45 PM on Tuesday 27 Jan 2015 (Local Time) from LHSN Reporting Station
Clear Clear  
Wind Chill: 32°   Ceiling: Unl
Heat Index: 32°   Visibility: 5mi
Dew Point: 27°   Wind: 2mph
Humidity: 80%   Direction: 210°SSW
Pressure: 30"   Gusts: NA
Location:  47.9°N, 20.38°E
Report Text: LHSN 271345Z 21002KT 8000 NSC 00/M03 Q1016 NOSIG RMK BLU
Loading
Personal Weather Stations






























Interactive Weather Map New forecast layout! Learn more

10-Day Weather Forecast

Advertisements
Track Severe Weather on mobile